Time;durP1;ratioP1;P1;durP2;ratioP2;P2;SDS_P1;SDS_P2;PMS_P1;PMS_P2;Temp;Humidity;BMP_temperature;BMP_pressure;BME280_temperature;BME280_humidity;BME280_pressure;Samples;Min_cycle;Max_cycle;Signal;HPM_P1;HPM_P2
2023/10/22 00:01:32;;;;;;;10.30;9.30;;;;;;;10.82;100.00;100778.36;104813;1260;61540;-50
2023/10/22 00:03:59;;;;;;;13.80;12.40;;;;;;;10.83;100.00;100779.26;104714;1255;60463;-51
2023/10/22 00:06:27;;;;;;;14.30;12.80;;;;;;;10.82;100.00;100780.90;104852;1260;73948;-50
2023/10/22 00:08:54;;;;;;;14.40;12.80;;;;;;;10.82;100.00;100774.27;104793;1257;65931;-50
2023/10/22 00:11:22;;;;;;;16.80;14.60;;;;;;;10.82;100.00;100767.95;104798;1257;73670;-50
2023/10/22 00:13:49;;;;;;;15.90;14.30;;;;;;;10.82;100.00;100761.15;104882;1259;60539;-51
2023/10/22 00:16:16;;;;;;;20.90;14.90;;;;;;;10.80;100.00;100764.77;104790;1255;62158;-50
2023/10/22 00:18:44;;;;;;;18.30;15.90;;;;;;;10.80;100.00;100764.09;104831;1259;73311;-50
2023/10/22 00:21:12;;;;;;;16.60;15.00;;;;;;;10.80;100.00;100767.13;108985;1254;65799;-50
2023/10/22 00:23:39;;;;;;;15.10;13.60;;;;;;;10.81;100.00;100770.69;108999;1254;72630;-51
2023/10/22 00:26:12;;;;;;;15.40;13.90;;;;;;;10.80;100.00;100773.79;108998;1254;60669;-51
2023/10/22 00:28:40;;;;;;;12.70;11.40;;;;;;;10.81;100.00;100770.88;108957;1254;59839;-51
2023/10/22 00:31:07;;;;;;;16.50;12.70;;;;;;;10.82;100.00;100773.89;108842;1254;74757;-51
2023/10/22 00:33:35;;;;;;;12.70;11.60;;;;;;;10.83;100.00;100774.77;108961;1254;65255;-51
2023/10/22 00:36:02;;;;;;;14.60;13.10;;;;;;;10.84;100.00;100775.99;109014;1259;73371;-51
2023/10/22 00:38:30;;;;;;;13.70;12.40;;;;;;;10.83;100.00;100776.91;108913;1257;62135;-51
2023/10/22 00:40:57;;;;;;;12.90;11.80;;;;;;;10.83;100.00;100788.76;108925;1260;60050;-51
2023/10/22 00:43:24;;;;;;;13.00;11.90;;;;;;;10.83;100.00;100791.98;109061;1255;71537;-51
2023/10/22 00:45:52;;;;;;;12.40;11.10;;;;;;;10.84;100.00;100793.58;108951;1254;65621;-51
2023/10/22 00:48:21;;;;;;;12.70;11.10;;;;;;;10.84;100.00;100791.23;108788;1254;73138;-51
2023/10/22 00:50:48;;;;;;;10.80;9.90;;;;;;;10.85;100.00;100791.58;108892;1256;60376;-51
2023/10/22 00:53:16;;;;;;;13.20;10.50;;;;;;;10.86;100.00;100782.75;108956;1254;60081;-51
2023/10/22 00:55:47;;;;;;;10.40;9.50;;;;;;;10.87;100.00;100797.62;108917;1255;74432;-51
2023/10/22 00:58:15;;;;;;;12.50;11.10;;;;;;;10.88;100.00;100801.01;108954;1257;66978;-51
2023/10/22 01:00:43;;;;;;;12.10;10.90;;;;;;;10.88;100.00;100805.85;109033;1254;71455;-52
2023/10/22 01:03:10;;;;;;;13.40;11.40;;;;;;;10.89;100.00;100808.13;108973;1259;61712;-51
2023/10/22 01:05:38;;;;;;;15.50;12.00;;;;;;;10.91;100.00;100818.48;108884;1260;59984;-51
2023/10/22 01:08:05;;;;;;;15.60;13.70;;;;;;;10.91;100.00;100818.30;106365;1260;72089;-51
2023/10/22 01:10:33;;;;;;;13.80;12.40;;;;;;;10.92;100.00;100823.66;104746;1254;65243;-51
2023/10/22 01:13:00;;;;;;;13.50;12.10;;;;;;;10.93;100.00;100832.60;104635;1259;71016;-51
2023/10/22 01:15:28;;;;;;;11.70;10.70;;;;;;;10.94;100.00;100830.96;106020;1259;61719;-50
2023/10/22 01:17:55;;;;;;;11.10;10.00;;;;;;;10.94;100.00;100825.02;104776;1260;60411;-49
2023/10/22 01:20:23;;;;;;;12.10;10.90;;;;;;;10.94;100.00;100826.46;104830;1259;72645;-50
2023/10/22 01:22:50;;;;;;;10.10;9.20;;;;;;;10.95;100.00;100835.08;104662;1259;67231;-50
2023/10/22 01:25:18;;;;;;;11.40;10.30;;;;;;;10.95;100.00;100840.27;104771;1256;72453;-51
2023/10/22 01:27:45;;;;;;;10.60;9.30;;;;;;;10.96;100.00;100840.23;104527;1254;61720;-51
2023/10/22 01:30:12;;;;;;;8.90;8.00;;;;;;;10.96;100.00;100839.89;104703;1257;60746;-50
2023/10/22 01:32:40;;;;;;;10.10;9.20;;;;;;;10.96;100.00;100844.92;104639;1260;73232;-50
2023/10/22 01:35:08;;;;;;;8.80;6.90;;;;;;;10.95;100.00;100847.81;108828;1260;66996;-52
2023/10/22 01:37:36;;;;;;;7.70;7.10;;;;;;;10.94;100.00;100850.17;105047;1259;72672;-51
2023/10/22 01:40:04;;;;;;;8.10;7.30;;;;;;;10.94;100.00;100851.98;105291;1260;61740;-51
2023/10/22 01:42:32;;;;;;;11.00;8.90;;;;;;;10.94;100.00;100850.35;108880;1254;58820;-52
2023/10/22 01:45:01;;;;;;;8.50;7.80;;;;;;;10.94;100.00;100852.14;107798;1257;73854;-51
2023/10/22 01:47:28;;;;;;;9.30;8.60;;;;;;;10.94;100.00;100857.38;104808;1252;68717;-51
2023/10/22 01:49:56;;;;;;;9.70;8.70;;;;;;;10.94;100.00;100858.79;106166;1258;71233;-51
2023/10/22 01:52:23;;;;;;;10.10;9.10;;;;;;;10.94;100.00;100859.69;104676;1254;60871;-50
2023/10/22 01:54:52;;;;;;;10.80;9.20;;;;;;;10.94;100.00;100865.10;104834;1255;60572;-51
2023/10/22 01:57:19;;;;;;;10.60;9.60;;;;;;;10.93;100.00;100864.38;104779;1254;74284;-52
2023/10/22 01:59:47;;;;;;;11.30;8.60;;;;;;;10.94;100.00;100867.97;104791;1255;67049;-49
2023/10/22 02:02:15;;;;;;;10.60;9.60;;;;;;;10.93;100.00;100868.34;104793;1258;72466;-51
2023/10/22 02:04:43;;;;;;;10.80;9.50;;;;;;;10.93;100.00;100876.60;104924;1262;61811;-51
2023/10/22 02:07:11;;;;;;;10.60;9.50;;;;;;;10.93;100.00;100878.95;104748;1254;60453;-51
2023/10/22 02:09:38;;;;;;;9.40;8.60;;;;;;;10.93;100.00;100878.23;108498;1257;73787;-52
2023/10/22 02:12:07;;;;;;;9.50;8.70;;;;;;;10.91;100.00;100878.45;104982;1254;65619;-50
2023/10/22 02:14:35;;;;;;;8.30;7.60;;;;;;;10.91;100.00;100878.27;104804;1260;73827;-50
2023/10/22 02:17:03;;;;;;;8.80;7.90;;;;;;;10.91;100.00;100874.34;104728;1259;60550;-51
2023/10/22 02:19:30;;;;;;;10.00;9.00;;;;;;;10.92;100.00;100870.17;105864;1254;61222;-51
2023/10/22 02:21:58;;;;;;;9.70;8.80;;;;;;;10.93;100.00;100873.55;104787;1259;72907;-50
2023/10/22 02:24:28;;;;;;;9.30;8.40;;;;;;;10.94;100.00;100872.97;104958;1254;66847;-51
2023/10/22 02:26:56;;;;;;;10.30;9.10;;;;;;;10.96;100.00;100870.59;107621;1254;73152;-52
2023/10/22 02:29:24;;;;;;;7.60;7.00;;;;;;;10.97;100.00;100870.57;104726;1255;60561;-52
2023/10/22 02:31:51;;;;;;;10.60;9.70;;;;;;;10.97;100.00;100880.60;104883;1254;60562;-52
2023/10/22 02:34:19;;;;;;;10.00;9.10;;;;;;;10.97;100.00;100881.67;104697;1260;74014;-53
2023/10/22 02:36:46;;;;;;;9.70;8.70;;;;;;;10.97;100.00;100882.05;104677;1260;65986;-52
2023/10/22 02:39:13;;;;;;;8.50;7.60;;;;;;;10.97;100.00;100884.38;104771;1260;72167;-50
2023/10/22 02:41:41;;;;;;;8.60;7.90;;;;;;;10.98;100.00;100891.16;104837;1261;60918;-50
2023/10/22 02:44:09;;;;;;;8.80;7.90;;;;;;;10.98;100.00;100890.09;104618;1257;60556;-52
2023/10/22 02:46:36;;;;;;;8.30;7.60;;;;;;;10.99;100.00;100892.39;104602;1255;73812;-52
2023/10/22 02:49:03;;;;;;;8.80;8.10;;;;;;;10.99;100.00;100897.40;109003;1254;65510;-53
2023/10/22 02:51:31;;;;;;;8.60;8.00;;;;;;;11.00;100.00;100897.40;105605;1258;71886;-52
2023/10/22 02:53:59;;;;;;;8.00;7.10;;;;;;;10.99;100.00;100892.92;104523;1260;60627;-52
2023/10/22 02:56:26;;;;;;;7.90;7.30;;;;;;;11.00;100.00;100899.17;104767;1258;60472;-52
2023/10/22 02:58:53;;;;;;;9.50;8.40;;;;;;;11.01;100.00;100900.06;104698;1255;72659;-52
2023/10/22 03:01:21;;;;;;;8.00;7.30;;;;;;;11.00;100.00;100893.08;104722;1254;67382;-51
2023/10/22 03:03:48;;;;;;;9.90;7.90;;;;;;;11.01;100.00;100888.40;104728;1259;71406;-50
2023/10/22 03:06:16;;;;;;;7.60;7.00;;;;;;;11.03;100.00;100895.35;104763;1259;60469;-51
2023/10/22 03:08:44;;;;;;;7.80;7.20;;;;;;;11.03;100.00;100891.39;104641;1259;60596;-50
2023/10/22 03:11:18;;;;;;;6.90;6.30;;;;;;;11.03;100.00;100878.27;104739;1257;74281;-50
2023/10/22 03:13:46;;;;;;;8.20;7.60;;;;;;;11.03;100.00;100873.59;104953;1257;67452;-51
2023/10/22 03:16:16;;;;;;;8.60;7.40;;;;;;;11.03;100.00;100873.95;104755;1260;71431;-49
2023/10/22 03:18:44;;;;;;;7.20;6.60;;;;;;;11.03;100.00;100874.50;108876;1255;61586;-51
2023/10/22 03:21:13;;;;;;;9.00;8.10;;;;;;;11.03;100.00;100879.72;109063;1253;60109;-52
2023/10/22 03:23:43;;;;;;;9.20;8.10;;;;;;;11.03;100.00;100882.59;108994;1254;74288;-51
2023/10/22 03:26:18;;;;;;;8.70;7.90;;;;;;;11.01;100.00;100884.06;108888;1254;66249;-51
2023/10/22 03:28:46;;;;;;;8.70;7.90;;;;;;;11.01;100.00;100885.15;108969;1254;71233;-52
2023/10/22 03:31:13;;;;;;;8.20;7.50;;;;;;;11.00;100.00;100886.79;109012;1254;60369;-51
2023/10/22 03:33:41;;;;;;;8.20;7.60;;;;;;;11.02;100.00;100891.77;108984;1254;60320;-52
2023/10/22 03:36:11;;;;;;;7.50;7.00;;;;;;;11.03;100.00;100894.44;109051;1254;73914;-51
2023/10/22 03:38:39;;;;;;;8.60;7.80;;;;;;;11.04;100.00;100894.77;108996;1254;65551;-51
2023/10/22 03:41:06;;;;;;;9.70;8.50;;;;;;;11.07;100.00;100898.59;108821;1258;71179;-52
2023/10/22 03:43:37;;;;;;;7.40;6.80;;;;;;;11.10;100.00;100904.44;108971;1257;60432;-51
2023/10/22 03:49:05;;;;;;;7.90;7.30;;;;;;;11.14;100.00;101052.17;101780;1293;599706;-52
2023/10/22 03:51:34;;;;;;;9.60;7.20;;;;;;;11.11;100.00;101115.85;108215;1266;60470;-52
2023/10/22 03:54:03;;;;;;;8.00;7.30;;;;;;;11.12;100.00;101080.45;108188;1266;58833;-52
2023/10/22 03:56:30;;;;;;;9.30;8.50;;;;;;;11.12;100.00;101066.08;108263;1267;70972;-53
2023/10/22 03:58:57;;;;;;;7.00;6.40;;;;;;;11.12;100.00;101051.53;108223;1267;65619;-54
2023/10/22 04:01:25;;;;;;;8.70;8.00;;;;;;;11.12;100.00;101041.27;108245;1267;72732;-53
2023/10/22 04:03:52;;;;;;;8.00;7.40;;;;;;;11.13;100.00;101042.33;106976;1265;154513;-52
2023/10/22 04:06:20;;;;;;;8.00;7.20;;;;;;;11.15;100.00;101035.27;103952;1264;61109;-51
2023/10/22 04:08:47;;;;;;;6.90;6.30;;;;;;;11.15;100.00;101032.00;104159;1263;72330;-51
2023/10/22 04:11:18;;;;;;;8.20;7.50;;;;;;;11.16;100.00;101029.27;103998;1264;66822;-52
2023/10/22 04:13:46;;;;;;;8.40;7.50;;;;;;;11.16;100.00;101023.52;107973;1266;73190;-51
2023/10/22 04:16:15;;;;;;;7.90;7.10;;;;;;;11.16;100.00;101018.67;103996;1269;60372;-51
2023/10/22 04:18:42;;;;;;;7.10;6.10;;;;;;;11.17;100.00;101016.13;103911;1269;61740;-52
2023/10/22 04:21:13;;;;;;;8.20;7.50;;;;;;;11.19;100.00;101013.59;104165;1269;74169;-52
2023/10/22 04:23:41;;;;;;;8.20;7.50;;;;;;;11.20;100.00;101010.68;107106;1266;65728;-51
2023/10/22 04:26:13;;;;;;;8.90;8.10;;;;;;;11.19;100.00;101001.17;108196;1264;70520;-53
2023/10/22 04:28:42;;;;;;;7.70;7.20;;;;;;;11.19;100.00;100998.11;105445;1269;61617;-52
2023/10/22 04:31:09;;;;;;;9.50;7.60;;;;;;;11.19;100.00;100991.47;107216;1269;60536;-53
2023/10/22 04:33:37;;;;;;;8.40;7.60;;;;;;;11.20;100.00;100992.86;104104;1263;73769;-52
2023/10/22 04:36:15;;;;;;;8.20;6.90;;;;;;;11.21;100.00;100998.77;107975;1263;67209;-52
2023/10/22 04:38:43;;;;;;;9.80;8.00;;;;;;;11.22;100.00;101000.20;105983;1260;72440;-51
2023/10/22 04:41:11;;;;;;;8.00;7.30;;;;;;;11.22;100.00;100991.56;104580;1258;60943;-52
2023/10/22 04:43:38;;;;;;;10.00;8.60;;;;;;;11.22;100.00;100995.13;104492;1257;60137;-51
2023/10/22 04:46:05;;;;;;;8.40;7.60;;;;;;;11.23;100.00;100997.06;104251;1262;71629;-50
2023/10/22 04:48:33;;;;;;;8.30;7.30;;;;;;;11.23;100.00;100997.97;104464;1260;65638;-52
2023/10/22 04:51:05;;;;;;;7.30;6.60;;;;;;;11.22;100.00;101001.79;104416;1259;71532;-52
2023/10/22 04:53:36;;;;;;;8.00;7.30;;;;;;;11.22;100.00;101002.70;105273;1262;61618;-51
2023/10/22 04:56:04;;;;;;;9.50;8.70;;;;;;;11.22;100.00;101000.55;104810;1262;59829;-51
2023/10/22 04:58:33;;;;;;;10.20;8.10;;;;;;;11.22;100.00;101001.95;104401;1262;73548;-51
2023/10/22 05:01:00;;;;;;;8.60;7.80;;;;;;;11.22;100.00;101002.69;104364;1260;65804;-51
2023/10/22 05:03:27;;;;;;;11.20;10.00;;;;;;;11.22;100.00;101009.17;104277;1265;73139;-51
2023/10/22 05:05:55;;;;;;;10.10;9.20;;;;;;;11.21;100.00;101012.98;104328;1260;61719;-52
2023/10/22 05:08:23;;;;;;;8.90;8.10;;;;;;;11.19;100.00;101019.67;104514;1260;60086;-52
2023/10/22 05:10:51;;;;;;;8.70;8.00;;;;;;;11.17;100.00;101020.27;104402;1260;72920;-50
2023/10/22 05:13:18;;;;;;;8.70;7.90;;;;;;;11.18;100.00;101022.05;104416;1260;67505;-51
2023/10/22 05:15:52;;;;;;;10.50;9.60;;;;;;;11.18;100.00;101022.02;104368;1264;72799;-52
2023/10/22 05:18:19;;;;;;;9.70;8.90;;;;;;;11.19;100.00;101027.04;104456;1260;61656;-49
2023/10/22 05:20:46;;;;;;;10.10;8.70;;;;;;;11.19;100.00;101027.94;108467;1258;58831;-51
2023/10/22 05:23:15;;;;;;;10.90;10.00;;;;;;;11.20;100.00;101031.15;105863;1261;73139;-51
2023/10/22 05:25:42;;;;;;;11.90;10.30;;;;;;;11.21;100.00;101031.65;104814;1260;66910;-53
2023/10/22 05:28:09;;;;;;;11.30;10.20;;;;;;;11.21;100.00;101035.23;104477;1263;73190;-53
2023/10/22 05:30:37;;;;;;;12.30;9.60;;;;;;;11.22;100.00;101036.48;104404;1260;61676;-53
2023/10/22 05:33:04;;;;;;;13.50;11.00;;;;;;;11.23;100.00;101039.13;104360;1265;59638;-52
2023/10/22 05:35:34;;;;;;;14.20;10.80;;;;;;;11.24;100.00;101046.29;104613;1263;73175;-51
2023/10/22 05:38:02;;;;;;;11.80;10.50;;;;;;;11.24;100.00;101055.96;105349;1260;66994;-51
2023/10/22 05:40:35;;;;;;;12.90;11.70;;;;;;;11.25;100.00;101061.35;104534;1260;71478;-51
2023/10/22 05:43:03;;;;;;;13.70;12.20;;;;;;;11.26;100.00;101070.49;108606;1259;60465;-52
2023/10/22 05:45:30;;;;;;;13.10;12.00;;;;;;;11.26;100.00;101075.50;107383;1261;57849;-52
2023/10/22 05:47:58;;;;;;;16.10;12.70;;;;;;;11.27;100.00;101085.17;104432;1260;71979;-50
2023/10/22 05:50:26;;;;;;;16.00;13.60;;;;;;;11.28;100.00;101095.77;104560;1263;67043;-50
2023/10/22 05:52:53;;;;;;;13.90;12.40;;;;;;;11.30;100.00;101102.90;104342;1264;72909;-50
2023/10/22 05:55:21;;;;;;;18.60;14.20;;;;;;;11.31;100.00;101106.25;104284;1260;62096;-49
2023/10/22 05:57:48;;;;;;;18.20;14.50;;;;;;;11.32;100.00;101110.55;106319;1260;60178;-51
2023/10/22 06:00:16;;;;;;;18.90;15.30;;;;;;;11.33;100.00;101121.83;104271;1263;73133;-51
2023/10/22 06:02:43;;;;;;;17.80;14.90;;;;;;;11.34;100.00;101125.94;107258;1262;67362;-52
2023/10/22 06:05:14;;;;;;;19.60;15.80;;;;;;;11.35;100.00;101125.92;104253;1260;72766;-51
2023/10/22 06:07:52;;;;;;;19.80;15.50;;;;;;;11.37;100.00;101131.80;108523;1259;61004;-52
2023/10/22 06:10:20;;;;;;;22.90;16.50;;;;;;;11.38;100.00;101129.95;108635;1259;60046;-52
2023/10/22 06:12:50;;;;;;;23.50;17.20;;;;;;;11.39;100.00;101125.95;108564;1262;73868;-52
2023/10/22 06:15:17;;;;;;;19.70;15.90;;;;;;;11.42;100.00;101131.81;108672;1260;65629;-52
2023/10/22 06:17:45;;;;;;;20.70;16.60;;;;;;;11.45;100.00;101126.71;108642;1258;71449;-52
2023/10/22 06:20:13;;;;;;;25.40;17.50;;;;;;;11.47;100.00;101137.43;108670;1261;62211;-52
2023/10/22 06:22:40;;;;;;;20.00;15.80;;;;;;;11.50;100.00;101137.68;108628;1260;60472;-52
2023/10/22 06:25:08;;;;;;;21.30;15.60;;;;;;;11.53;100.00;101143.17;108633;1260;76431;-52
2023/10/22 06:27:35;;;;;;;22.40;16.20;;;;;;;11.57;100.00;101146.66;108649;1260;65807;-52
2023/10/22 06:30:03;;;;;;;23.40;16.00;;;;;;;11.60;100.00;101140.25;108648;1260;71600;-52
2023/10/22 06:32:30;;;;;;;17.90;14.90;;;;;;;11.64;100.00;101139.98;108581;1260;60493;-52
2023/10/22 06:34:58;;;;;;;19.50;14.90;;;;;;;11.67;100.00;101135.55;108491;1259;58761;-52
2023/10/22 06:37:25;;;;;;;20.50;14.90;;;;;;;11.70;100.00;101137.96;108656;1258;73246;-52
2023/10/22 06:39:55;;;;;;;20.90;16.40;;;;;;;11.74;100.00;101137.52;108481;1258;66961;-52
2023/10/22 06:42:22;;;;;;;19.70;15.80;;;;;;;11.77;100.00;101150.39;108513;1259;74779;-52
2023/10/22 06:44:50;;;;;;;19.80;14.90;;;;;;;11.80;100.00;101151.39;108601;1260;60410;-52
2023/10/22 06:47:17;;;;;;;20.20;16.50;;;;;;;11.83;100.00;101156.85;108532;1257;58794;-52
2023/10/22 06:49:44;;;;;;;22.60;15.80;;;;;;;11.85;100.00;101155.16;108600;1260;71896;-52
2023/10/22 06:52:12;;;;;;;21.20;16.40;;;;;;;11.86;100.00;101158.72;107140;1260;65538;-51
2023/10/22 06:54:39;;;;;;;22.70;16.00;;;;;;;11.88;100.00;101154.36;104447;1265;73257;-52
2023/10/22 06:57:06;;;;;;;17.70;15.00;;;;;;;11.90;100.00;101161.66;104032;1260;61430;-52
2023/10/22 06:59:34;;;;;;;21.80;16.30;;;;;;;11.94;100.00;101166.22;104218;1261;59565;-51
2023/10/22 07:02:02;;;;;;;21.30;15.70;;;;;;;11.97;100.00;101164.15;104545;1265;73073;-51
2023/10/22 07:04:29;;;;;;;19.30;13.90;;;;;;;11.99;100.00;101170.16;106623;1263;66441;-51
2023/10/22 07:06:56;;;;;;;22.30;16.60;;;;;;;12.03;100.00;101170.07;105337;1260;71463;-50
2023/10/22 07:09:24;;;;;;;20.10;14.80;;;;;;;12.04;100.00;101166.07;104333;1260;61753;-50
2023/10/22 07:11:51;;;;;;;20.80;16.20;;;;;;;12.05;100.00;101169.10;104879;1260;60547;-51
2023/10/22 07:14:19;;;;;;;20.70;15.20;;;;;;;12.06;100.00;101163.86;108552;1260;73144;-52
2023/10/22 07:16:46;;;;;;;19.70;14.90;;;;;;;12.07;100.00;101166.73;106583;1260;66901;-51
2023/10/22 07:19:13;;;;;;;21.10;13.90;;;;;;;12.08;100.00;101178.71;104266;1260;72683;-51
2023/10/22 07:21:41;;;;;;;18.20;13.80;;;;;;;12.10;100.00;101182.77;104584;1260;60488;-51
2023/10/22 07:24:08;;;;;;;19.00;15.20;;;;;;;12.12;100.00;101185.23;104398;1265;59572;-50
2023/10/22 07:26:36;;;;;;;19.50;14.50;;;;;;;12.13;100.00;101181.45;104205;1259;71836;-51
2023/10/22 07:29:03;;;;;;;19.30;14.20;;;;;;;12.14;100.00;101178.71;104475;1260;67353;-51
2023/10/22 07:31:31;;;;;;;19.50;14.30;;;;;;;12.17;100.00;101179.70;104512;1263;72674;-50
2023/10/22 07:33:58;;;;;;;20.50;15.80;;;;;;;12.19;100.00;101179.27;104512;1259;60548;-50
2023/10/22 07:36:26;;;;;;;20.70;15.10;;;;;;;12.19;100.00;101181.23;104334;1260;60254;-51
2023/10/22 07:38:53;;;;;;;19.30;14.20;;;;;;;12.21;100.00;101177.78;105047;1260;73195;-51
2023/10/22 07:41:21;;;;;;;18.50;15.50;;;;;;;12.22;100.00;101171.62;104939;1261;66705;-50
2023/10/22 07:43:48;;;;;;;18.30;15.40;;;;;;;12.22;100.00;101174.31;104410;1266;71461;-51
2023/10/22 07:46:16;;;;;;;23.30;15.40;;;;;;;12.23;100.00;101170.16;104287;1260;61929;-52
2023/10/22 07:48:45;;;;;;;19.10;13.80;;;;;;;12.25;100.00;101176.73;104402;1263;60309;-51
2023/10/22 07:51:17;;;;;;;19.40;14.80;;;;;;;12.28;100.00;101176.10;105091;1260;73556;-51
2023/10/22 07:53:46;;;;;;;19.30;14.70;;;;;;;12.30;100.00;101183.57;104703;1265;65998;-51
2023/10/22 07:56:16;;;;;;;19.20;14.70;;;;;;;12.35;100.00;101195.66;104615;1259;71565;-51
2023/10/22 07:58:43;;;;;;;18.00;15.00;;;;;;;12.38;100.00;101202.58;104338;1265;60516;-51
2023/10/22 08:01:10;;;;;;;18.00;14.80;;;;;;;12.42;100.00;101202.26;104411;1260;60673;-51
2023/10/22 08:03:38;;;;;;;19.70;15.10;;;;;;;12.44;100.00;101200.02;104382;1258;73134;-51
2023/10/22 08:06:06;;;;;;;20.60;15.40;;;;;;;12.46;100.00;101199.42;104570;1263;66133;-51
2023/10/22 08:08:34;;;;;;;20.80;15.60;;;;;;;12.48;100.00;101196.30;104414;1259;70805;-52
2023/10/22 08:11:06;;;;;;;20.00;16.20;;;;;;;12.52;100.00;101202.11;106304;1260;60559;-52
2023/10/22 08:13:33;;;;;;;19.20;15.00;;;;;;;12.54;100.00;101208.88;108127;1260;59587;-51
2023/10/22 08:16:07;;;;;;;18.40;15.20;;;;;;;12.57;100.00;101217.45;104616;1265;73876;-51
2023/10/22 08:18:34;;;;;;;19.80;16.10;;;;;;;12.61;100.00;101220.02;105965;1261;66719;-52
2023/10/22 08:21:03;;;;;;;21.30;14.60;;;;;;;12.64;100.00;101211.44;104287;1265;73436;-50
2023/10/22 08:23:30;;;;;;;21.40;16.00;;;;;;;12.67;100.00;101217.27;107602;1260;61701;-51
2023/10/22 08:25:58;;;;;;;16.90;15.00;;;;;;;12.70;100.00;101227.07;104721;1259;60552;-51
2023/10/22 08:28:25;;;;;;;23.50;16.70;;;;;;;12.73;100.00;101231.13;104267;1263;73825;-51
2023/10/22 08:30:53;;;;;;;20.90;16.70;;;;;;;12.76;100.00;101233.52;104344;1265;65944;-51
2023/10/22 08:33:20;;;;;;;20.30;16.50;;;;;;;12.79;100.00;101233.07;104440;1263;71454;-52
2023/10/22 08:35:48;;;;;;;18.80;14.80;;;;;;;12.82;100.00;101230.81;104131;1260;60572;-51
2023/10/22 08:38:15;;;;;;;24.80;17.20;;;;;;;12.85;100.00;101229.63;104613;1260;60450;-51
2023/10/22 08:40:43;;;;;;;19.40;16.90;;;;;;;12.88;100.00;101228.98;106157;1263;72989;-51
2023/10/22 08:43:16;;;;;;;22.40;16.80;;;;;;;12.91;100.00;101233.39;104791;1260;67589;-50
2023/10/22 08:45:48;;;;;;;23.60;17.90;;;;;;;12.95;100.00;101245.70;106916;1263;74746;-51
2023/10/22 08:48:16;;;;;;;22.00;16.80;;;;;;;12.98;100.00;101248.27;104426;1265;60569;-51
2023/10/22 08:50:46;;;;;;;23.40;17.70;;;;;;;13.01;100.00;101248.91;104415;1263;61194;-51
2023/10/22 08:53:14;;;;;;;22.90;16.10;;;;;;;13.03;100.00;101253.86;104453;1259;73714;-51
2023/10/22 08:55:47;;;;;;;23.80;18.80;;;;;;;13.07;100.00;101251.05;104195;1260;67234;-49
2023/10/22 08:58:17;;;;;;;26.40;18.50;;;;;;;13.10;100.00;101256.87;108452;1263;71414;-52
2023/10/22 09:00:46;;;;;;;26.50;19.00;;;;;;;13.13;100.00;101254.80;108730;1260;60765;-52
2023/10/22 09:03:14;;;;;;;26.80;18.40;;;;;;;13.16;100.00;101246.96;106686;1260;60702;-52
2023/10/22 09:05:42;;;;;;;29.30;20.30;;;;;;;13.21;100.00;101255.23;107329;1263;74833;-52
2023/10/22 09:08:10;;;;;;;30.30;20.40;;;;;;;13.26;100.00;101260.12;104424;1264;65564;-51
2023/10/22 09:10:37;;;;;;;25.40;19.70;;;;;;;13.30;100.00;101260.70;104576;1263;72874;-51
2023/10/22 09:13:15;;;;;;;28.40;20.10;;;;;;;13.33;100.00;101265.66;104610;1265;60481;-49
2023/10/22 09:15:45;;;;;;;27.50;18.60;;;;;;;13.35;100.00;101270.97;104396;1261;60467;-52
2023/10/22 09:18:12;;;;;;;26.20;20.20;;;;;;;13.38;100.00;101268.89;108704;1259;72630;-52
2023/10/22 09:20:41;;;;;;;30.60;22.10;;;;;;;13.41;100.00;101275.80;108716;1261;67073;-53
2023/10/22 09:23:17;;;;;;;25.80;19.00;;;;;;;13.44;100.00;101282.21;108638;1259;73102;-53
2023/10/22 09:25:48;;;;;;;25.50;20.00;;;;;;;13.46;100.00;101289.13;108605;1261;62047;-52
2023/10/22 09:28:21;;;;;;;38.50;22.30;;;;;;;13.50;100.00;101288.66;108631;1263;58934;-52
2023/10/22 09:30:53;;;;;;;33.10;20.80;;;;;;;13.53;100.00;101294.46;108564;1259;75105;-52
2023/10/22 09:33:48;;;;;;;29.70;21.40;;;;;;;13.56;100.00;101315.85;108549;1260;67432;-52
2023/10/22 09:36:16;;;;;;;26.60;18.90;;;;;;;13.57;100.00;101336.91;108687;1261;71902;-51
2023/10/22 09:38:50;;;;;;;32.10;19.70;;;;;;;13.59;100.00;101335.21;108618;1260;61645;-52
2023/10/22 09:41:27;;;;;;;;;;;;;;;13.62;100.00;101341.41;108638;1263;60488;-52
2023/10/22 09:44:00;;;;;;;27.90;20.20;;;;;;;13.63;100.00;101345.52;108547;1260;72597;-52
2023/10/22 09:46:30;;;;;;;36.90;23.10;;;;;;;13.66;100.00;101346.33;105736;1263;65636;-52
2023/10/22 09:48:59;;;;;;;29.80;21.50;;;;;;;13.69;100.00;101351.13;108532;1259;71617;-53
2023/10/22 09:51:31;;;;;;;29.50;20.30;;;;;;;13.72;100.00;101357.85;104915;1263;61751;-51
2023/10/22 09:54:05;;;;;;;29.80;21.60;;;;;;;13.76;100.00;101383.70;105545;1266;60436;-51
2023/10/22 09:56:38;;;;;;;32.90;23.80;;;;;;;13.78;100.00;101387.04;104533;1263;72641;-51
2023/10/22 09:59:10;;;;;;;32.40;23.80;;;;;;;13.81;100.00;101395.77;104494;1264;65677;-51
2023/10/22 10:01:37;;;;;;;37.70;25.10;;;;;;;13.85;100.00;101403.76;104525;1263;72647;-51
2023/10/22 10:04:05;;;;;;;35.10;24.60;;;;;;;13.87;100.00;101402.23;104278;1261;60543;-51
2023/10/22 10:06:33;;;;;;;33.30;24.30;;;;;;;13.89;100.00;101406.66;104298;1260;60454;-52
2023/10/22 10:09:03;;;;;;;37.90;26.20;;;;;;;13.89;100.00;101410.10;104749;1260;72719;-52
2023/10/22 10:11:31;;;;;;;41.80;29.20;;;;;;;13.89;100.00;101415.88;104410;1264;65700;-51
2023/10/22 10:14:10;;;;;;;39.20;27.60;;;;;;;13.89;100.00;101413.52;105469;1263;73133;-51
2023/10/22 10:16:44;;;;;;;39.50;29.90;;;;;;;13.90;100.00;101417.61;104209;1266;60521;-51
2023/10/22 10:19:20;;;;;;;38.20;29.00;;;;;;;13.92;100.00;101416.85;105162;1261;60453;-50
2023/10/22 10:21:48;;;;;;;39.50;29.30;;;;;;;13.93;100.00;101411.76;104416;1263;72658;-52
2023/10/22 10:24:16;;;;;;;41.80;31.40;;;;;;;13.93;100.00;101399.85;104269;1265;67188;-51
2023/10/22 10:26:44;;;;;;;43.70;31.70;;;;;;;13.93;100.00;101402.90;106496;1263;71493;-51
2023/10/22 10:29:16;;;;;;;51.40;32.40;;;;;;;13.94;100.00;101401.09;104316;1263;62182;-52
2023/10/22 10:31:51;;;;;;;53.60;34.30;;;;;;;13.94;100.00;101404.48;108607;1262;60083;-52
2023/10/22 10:34:24;;;;;;;52.40;34.80;;;;;;;13.96;100.00;101407.10;108232;1263;74860;-51
2023/10/22 10:36:52;;;;;;;57.20;36.30;;;;;;;13.97;100.00;101411.23;105553;1263;66745;-51
2023/10/22 10:39:42;;;;;;;55.20;35.50;;;;;;;13.98;100.00;101421.88;108459;1263;71602;-52
2023/10/22 10:42:10;;;;;;;47.50;33.50;;;;;;;13.99;100.00;101443.11;108326;1260;60890;-51
2023/10/22 10:45:05;;;;;;;48.30;34.70;;;;;;;14.01;100.00;101442.15;105025;1263;60674;-51
2023/10/22 10:47:36;;;;;;;53.20;33.90;;;;;;;14.03;100.00;101462.48;104207;1259;72685;-52
2023/10/22 10:50:17;;;;;;;46.40;33.40;;;;;;;14.03;100.00;101492.58;104911;1263;65984;-51
2023/10/22 10:52:48;;;;;;;48.60;33.20;;;;;;;14.08;100.00;101521.16;104389;1261;71458;-51
2023/10/22 10:55:18;;;;;;;44.00;31.90;;;;;;;14.12;100.00;101519.58;104416;1263;61873;-52
2023/10/22 10:57:50;;;;;;;43.60;31.40;;;;;;;14.18;100.00;101525.14;104386;1264;60541;-52
2023/10/22 11:00:21;;;;;;;49.80;34.40;;;;;;;14.23;100.00;101537.73;104844;1263;74837;-50
2023/10/22 11:02:53;;;;;;;47.00;32.70;;;;;;;14.29;100.00;101546.02;107655;1261;65647;-52
2023/10/22 11:05:35;;;;;;;42.20;30.30;;;;;;;14.35;100.00;101542.04;105540;1264;71444;-51
2023/10/22 11:08:22;;;;;;;45.80;31.20;;;;;;;14.41;100.00;101546.74;108631;1260;61643;-52
2023/10/22 11:10:49;;;;;;;46.60;31.30;;;;;;;14.45;100.00;101557.25;108558;1259;60641;-52